fecha-hora | temperatura | viento dirección-velocidad-rachas | humedad | presión

  • 27-09-2020 02:00:00 | 15.40°C | Nordeste-10.00 km/h - 30.00 km/h | 96.00% | 1014.70 hPa
  • 27-09-2020 01:00:00 | 16.70°C | Norte-13.00 km/h - 23.00 km/h | 96.00% | 1014.10 hPa
  • 27-09-2020 00:00:00 | 16.50°C | Oeste-7.00 km/h - 26.00 km/h | 97.00% | 1013.80 hPa
  • 26-09-2020 23:00:00 | 16.60°C | Oeste-9.00 km/h - 30.00 km/h | 94.00% | 1013.80 hPa
  • 26-09-2020 22:00:00 | 17.00°C | Oeste-12.00 km/h - 30.00 km/h | 93.00% | 1013.70 hPa
  • 26-09-2020 21:00:00 | 17.00°C | Oeste-12.00 km/h - 23.00 km/h | 94.00% | 1013.50 hPa
  • 26-09-2020 20:00:00 | 16.30°C | Sudoeste-8.00 km/h - 22.00 km/h | 96.00% | 1013.20 hPa
  • 26-09-2020 19:00:00 | 17.90°C | Sudoeste-10.00 km/h - 26.00 km/h | 85.00% | 1012.60 hPa
  • 26-09-2020 18:00:00 | 19.00°C | Oeste-11.00 km/h - 28.00 km/h | 73.00% | 1012.70 hPa
  • 26-09-2020 17:00:00 | 20.00°C | Oeste-15.00 km/h - 36.00 km/h | 66.00% | 1013.00 hPa
  • 26-09-2020 16:00:00 | 20.10°C | Oeste-17.00 km/h - 41.00 km/h | 61.00% | 1013.60 hPa
  • 26-09-2020 15:00:00 | 19.30°C | Oeste-16.00 km/h - 31.00 km/h | 61.00% | 1014.50 hPa
  • 26-09-2020 14:00:00 | 18.10°C | Oeste-12.00 km/h - 25.00 km/h | 65.00% | 1015.80 hPa
  • 26-09-2020 13:00:00 | 17.90°C | Sudoeste-10.00 km/h - 26.00 km/h | 63.00% | 1016.40 hPa
  • 26-09-2020 12:00:00 | 16.90°C | Sudoeste-10.00 km/h - 28.00 km/h | 65.00% | 1017.00 hPa
  • 26-09-2020 11:00:00 | 16.00°C | Sudoeste-12.00 km/h - 28.00 km/h | 69.00% | 1017.90 hPa
  • 26-09-2020 10:00:00 | 14.90°C | Sudoeste-9.00 km/h - 26.00 km/h | 73.00% | 1018.30 hPa
  • 26-09-2020 09:00:00 | 14.30°C | Sudoeste-8.00 km/h - 20.00 km/h | 74.00% | 1019.10 hPa
  • 26-09-2020 08:00:00 | 13.60°C | Sudoeste-6.00 km/h - 16.00 km/h | 78.00% | 1019.70 hPa
  • 26-09-2020 07:00:00 | 13.40°C | Sudoeste-6.00 km/h - 18.00 km/h | 81.00% | 1020.00 hPa
  • 26-09-2020 06:00:00 | 13.10°C | Sudoeste-9.00 km/h - 20.00 km/h | 83.00% | 1020.50 hPa
  • 26-09-2020 05:00:00 | 12.60°C | Sudoeste-6.00 km/h - 18.00 km/h | 89.00% | 1021.40 hPa
  • 26-09-2020 04:00:00 | 12.80°C | Sudoeste-9.00 km/h - 24.00 km/h | 86.00% | 1021.60 hPa
  • 26-09-2020 03:00:00 | 12.50°C | Sur-6.00 km/h - 19.00 km/h | 90.00% | 1022.30 hPa
    • Información sobre el estado de las mareas, altura de la marejada, temperatura del agua y otros datos de Gijón en Asturias.

      Surf Gijón